GOSS

Details ICAO GOSS (XLS)
Name SAINT LOUIS
Region Senegal
Timezone Africa/Dakar (UTC+0.0)
Plans Departing 18
Arriving 26
Stats Elevation 9 ft / 3 m (AMSL)
Location 16.048306° -16.459655°
Runways 2
Magnetic Variation 6.598° W
Sunrise 2018-05-22 06:35:41 UTC / 2018-05-22 06:35:41 Local
Sunset 2018-05-22 19:32:12 UTC / 2018-05-22 19:32:12 Local
Advertisement - Login to hide

Runways

ID Width Length Bearing (true) Bearing (mag) Surface Threshold Offset Overrun Length
01 125 ft / 38 m 4,325 ft / 1,318 m 4.26° 10.86° Dirt 0 ft / 0 m 0 ft / 0 m
18 100 ft / 30 m 6,261 ft / 1,908 m 172.61° 179.21° Asphalt 0 ft / 0 m 330 ft / 101 m
19 125 ft / 38 m 4,325 ft / 1,318 m 184.26° 190.86° Dirt 0 ft / 0 m 0 ft / 0 m
36 100 ft / 30 m 6,261 ft / 1,908 m 352.61° 359.21° Asphalt 0 ft / 0 m 330 ft / 101 m

Map

Weather


0- 5 10 15 20 25 30 35+ Temperature / ° C

Clouds and Precipitation
Forecast for 2018-05-22 12:00 UTC. Updated 5 hours ago

Ground ~20,000 ft ~40,000 ft Winds

METAR

GOSS 221600Z 34012KT CAVOK 26/18 Q1011

TAF

TAF GOSS 221130Z 2212/2312 36010KT CAVOK

Frequencies

Tower 118.70 MHz TWR
Warning: Do not use this data for real-world aviation or navigation. No guarantee of current accuracy is given.